Terminal Aerodrome Forecast
Issued by NWS

Current Version | Previous Version | Graphics & Text | Print | Product List | Glossary On
Versions: 1 2 3 4 5 6 7 8 9 10 11 12 13
016
FTUS41 KPBZ 200520
TAFMGW
TAF
KMGW 200520Z 2006/2106 22003KT P6SM BKN018
     FM201100 00000KT 5SM BR OVC015
     FM201300 00000KT P6SM BKN015
     FM201400 00000KT P6SM BKN025
     FM201600 13006KT P6SM FEW250=

USA.gov is the U.S. government's official web portal to all federal, state and local government web resources and services.